createdAt,value
2019-01-28T00:02:07.389Z,98463.18
2019-01-28T00:04:38.812Z,98467.09
2019-01-28T00:07:09.078Z,98463.52
2019-01-28T00:09:40.474Z,98467.14
2019-01-28T00:12:11.013Z,98465.91
2019-01-28T00:14:43.981Z,98462.58
2019-01-28T00:17:14.832Z,98460.92
2019-01-28T00:19:45.041Z,98462.11
2019-01-28T00:22:15.277Z,98464.14
2019-01-28T00:24:45.784Z,98463.60
2019-01-28T00:27:17.572Z,98466.73
2019-01-28T00:29:47.782Z,98455.59
2019-01-28T00:32:18.010Z,98455.59
2019-01-28T00:34:54.201Z,98457.71
2019-01-28T00:37:29.249Z,98461.59
2019-01-28T00:40:02.186Z,98462.77
2019-01-28T00:42:33.648Z,98459.39
2019-01-28T00:45:07.474Z,98455.22
2019-01-28T00:47:38.837Z,98455.22
2019-01-28T00:50:11.446Z,98452.73
2019-01-28T00:52:42.831Z,98455.00
2019-01-28T00:55:14.429Z,98458.96
2019-01-28T00:57:44.817Z,98460.85
2019-01-28T01:00:23.704Z,98460.01
2019-01-28T01:02:55.097Z,98468.95
2019-01-28T01:05:26.221Z,98447.64
2019-01-28T01:07:57.382Z,98467.80
2019-01-28T01:10:27.605Z,98473.99
2019-01-28T01:12:58.753Z,98475.39
2019-01-28T01:15:29.873Z,98475.64
2019-01-28T01:18:01.049Z,98474.70
2019-01-28T01:20:32.466Z,98477.66
2019-01-28T01:23:03.998Z,98476.23
2019-01-28T01:25:35.372Z,98479.42
2019-01-28T01:28:06.531Z,98477.07
2019-01-28T01:30:37.659Z,98485.66
2019-01-28T01:33:08.816Z,98480.12
2019-01-28T01:35:39.940Z,98485.16
2019-01-28T01:38:11.116Z,98475.50
2019-01-28T01:40:43.454Z,98478.23
2019-01-28T01:43:14.642Z,98478.13
2019-01-28T01:45:46.976Z,98471.89
2019-01-28T01:48:18.143Z,98473.49
2019-01-28T01:50:50.502Z,98471.48
2019-01-28T01:53:20.736Z,98470.13
2019-01-28T01:55:50.947Z,98471.95
2019-01-28T01:58:21.179Z,98477.09
2019-01-28T02:00:51.390Z,98477.56
2019-01-28T02:03:21.635Z,98473.88
2019-01-28T02:05:51.839Z,98474.47
2019-01-28T02:08:22.988Z,98470.97
2019-01-28T02:10:53.199Z,98476.50
2019-01-28T02:13:23.433Z,98475.79
2019-01-28T02:15:53.643Z,98472.67
2019-01-28T02:18:23.881Z,98476.55
2019-01-28T02:20:54.090Z,98466.52
2019-01-28T02:23:25.253Z,98476.25
2019-01-28T02:25:55.457Z,98489.06
2019-01-28T02:28:25.694Z,98482.11
2019-01-28T02:30:55.903Z,98488.56
2019-01-28T02:33:26.154Z,98482.56
2019-01-28T02:35:56.355Z,98483.03
2019-01-28T02:38:26.584Z,98487.75
2019-01-28T02:40:56.791Z,98484.45
2019-01-28T02:43:27.032Z,98492.11
2019-01-28T02:45:57.237Z,98497.67
2019-01-28T02:48:27.480Z,98505.50
2019-01-28T02:50:58.598Z,98500.86
2019-01-28T02:53:28.844Z,98505.61
2019-01-28T02:55:59.059Z,98508.27
2019-01-28T02:58:29.589Z,98506.63
2019-01-28T03:00:59.799Z,98506.63
2019-01-28T03:03:30.041Z,98493.99
2019-01-28T03:06:00.250Z,98493.99
2019-01-28T03:08:30.483Z,98507.66
2019-01-28T03:11:00.691Z,98505.82
2019-01-28T03:13:30.925Z,98510.96
2019-01-28T03:16:01.148Z,98504.06
2019-01-28T03:18:31.384Z,98506.38
2019-01-28T03:21:02.801Z,98503.05
2019-01-28T03:23:33.215Z,98498.80
2019-01-28T03:26:03.562Z,98504.06
2019-01-28T03:28:33.803Z,98505.45
2019-01-28T03:31:04.938Z,98510.67
2019-01-28T03:33:35.166Z,98507.18
2019-01-28T03:36:05.673Z,98506.00
2019-01-28T03:38:37.145Z,98508.19
2019-01-28T03:41:07.357Z,98505.92
2019-01-28T03:43:38.513Z,98510.09
2019-01-28T03:46:09.838Z,98508.95
2019-01-28T03:48:40.505Z,98506.34
2019-01-28T03:51:10.706Z,98499.72
2019-01-28T03:53:41.406Z,98516.62
2019-01-28T03:56:11.615Z,98511.39
2019-01-28T03:58:42.002Z,98500.52
2019-01-28T04:01:12.208Z,98506.75
2019-01-28T04:03:42.448Z,98502.06
2019-01-28T04:06:12.650Z,98503.61
2019-01-28T04:08:43.507Z,98502.13
2019-01-28T04:11:13.709Z,98504.31
2019-01-28T04:13:43.947Z,98511.58
2019-01-28T04:16:14.159Z,98499.91
2019-01-28T04:18:44.389Z,98507.13
2019-01-28T04:21:14.598Z,98512.53
2019-01-28T04:23:44.840Z,98508.31
2019-01-28T04:26:16.087Z,98512.23
2019-01-28T04:28:51.776Z,98522.09
2019-01-28T04:31:21.957Z,98512.28
2019-01-28T04:33:53.417Z,98520.28
2019-01-28T04:36:23.620Z,98524.08
2019-01-28T04:38:56.123Z,98519.94
2019-01-28T04:41:25.897Z,98519.94
2019-01-28T04:43:57.975Z,98519.35
2019-01-28T04:46:28.196Z,98521.80
2019-01-28T04:48:58.426Z,98521.20
2019-01-28T04:51:28.628Z,98518.05
2019-01-28T04:53:58.852Z,98526.00
2019-01-28T04:56:29.074Z,98520.52
2019-01-28T04:58:59.295Z,98524.77
2019-01-28T05:01:29.501Z,98521.19
2019-01-28T05:03:59.725Z,98521.27
2019-01-28T05:06:29.939Z,98520.89
2019-01-28T05:09:00.166Z,98519.94
2019-01-28T05:11:30.384Z,98525.98
2019-01-28T05:14:07.968Z,98523.74
2019-01-28T05:16:38.551Z,98528.71
2019-01-28T05:19:09.854Z,98524.28
2019-01-28T05:21:40.213Z,98525.63
2019-01-28T05:24:10.448Z,98529.53
2019-01-28T05:26:40.658Z,98526.99
2019-01-28T05:29:11.206Z,98531.00
2019-01-28T05:31:41.409Z,98530.91
2019-01-28T05:34:11.657Z,98527.64
2019-01-28T05:36:41.861Z,98536.91
2019-01-28T05:39:12.091Z,98534.77
2019-01-28T05:41:42.300Z,98538.84
2019-01-28T05:44:13.455Z,98541.00
2019-01-28T05:46:43.667Z,98547.66
2019-01-28T05:49:13.913Z,98547.84
2019-01-28T05:51:44.585Z,98549.14
2019-01-28T05:54:15.906Z,98552.32
2019-01-28T05:56:46.110Z,98557.66
2019-01-28T05:59:16.345Z,98553.84
2019-01-28T06:01:46.570Z,98555.63
2019-01-28T06:04:18.019Z,98556.47
2019-01-28T06:06:48.308Z,98557.47
2019-01-28T06:09:19.696Z,98555.44
2019-01-28T06:11:49.923Z,98547.38
2019-01-28T06:14:21.370Z,98547.31
2019-01-28T06:16:52.793Z,98556.75
2019-01-28T06:19:23.032Z,98553.84
2019-01-28T06:21:54.164Z,98558.07
2019-01-28T06:24:25.314Z,98557.14
2019-01-28T06:26:56.450Z,98557.47
2019-01-28T06:29:27.608Z,98561.59
2019-01-28T06:32:00.884Z,98571.98
2019-01-28T06:34:32.051Z,98564.85
2019-01-28T06:37:02.256Z,98562.69
2019-01-28T06:39:33.415Z,98565.44
2019-01-28T06:42:03.623Z,98576.07
2019-01-28T06:44:34.770Z,98579.19
2019-01-28T06:47:04.976Z,98569.48
2019-01-28T06:49:35.219Z,98571.49
2019-01-28T06:52:05.426Z,98571.15
2019-01-28T06:54:37.818Z,98567.81
2019-01-28T06:57:08.016Z,98569.92
2019-01-28T06:59:38.248Z,98569.58
2019-01-28T07:02:08.465Z,98576.13
2019-01-28T07:04:38.704Z,98573.48
2019-01-28T07:07:10.558Z,98571.26
2019-01-28T07:09:41.318Z,98570.53
2019-01-28T07:12:11.530Z,98577.88
2019-01-28T07:14:41.763Z,98578.77
2019-01-28T07:17:11.967Z,98576.16
2019-01-28T07:19:42.195Z,98584.70
2019-01-28T07:22:12.405Z,98584.34
2019-01-28T07:24:44.462Z,98595.78
2019-01-28T07:27:14.762Z,98593.05
2019-01-28T07:29:45.275Z,98598.20
2019-01-28T07:32:16.665Z,98597.44
2019-01-28T07:34:46.922Z,98600.28
2019-01-28T07:37:17.144Z,98603.94
2019-01-28T07:39:47.419Z,98599.70
2019-01-28T07:42:18.790Z,98602.52
2019-01-28T07:44:49.045Z,98609.33
2019-01-28T07:47:20.458Z,98614.06
2019-01-28T07:49:50.694Z,98617.84
2019-01-28T07:52:20.904Z,98620.92
2019-01-28T07:54:51.144Z,98622.95
2019-01-28T07:57:21.358Z,98625.54
2019-01-28T07:59:51.584Z,98625.84
2019-01-28T08:02:21.802Z,98621.87
2019-01-28T08:04:52.040Z,98634.86
2019-01-28T08:07:22.248Z,98637.02
2019-01-28T08:09:52.482Z,98641.05
2019-01-28T08:12:22.699Z,98640.55
2019-01-28T08:14:52.937Z,98641.23
2019-01-28T08:17:23.178Z,98650.70
2019-01-28T08:19:54.616Z,98654.02
2019-01-28T08:22:24.827Z,98656.31
2019-01-28T08:24:55.078Z,98659.57
2019-01-28T08:27:26.477Z,98659.87
2019-01-28T08:29:56.713Z,98664.78
2019-01-28T08:32:26.934Z,98662.46
2019-01-28T08:34:57.467Z,98667.23
2019-01-28T08:37:27.681Z,98666.89
2019-01-28T08:39:57.929Z,98669.34
2019-01-28T08:42:28.139Z,98664.73
2019-01-28T08:44:59.304Z,98666.73
2019-01-28T08:47:30.705Z,98667.66
2019-01-28T08:50:00.969Z,98670.19
2019-01-28T08:52:31.177Z,98665.96
2019-01-28T08:55:02.321Z,98665.88
2019-01-28T08:57:32.534Z,98678.05
2019-01-28T09:00:03.143Z,98678.81
2019-01-28T09:02:33.631Z,98684.33
2019-01-28T09:05:06.999Z,98676.52
2019-01-28T09:07:37.406Z,98684.60
2019-01-28T09:10:11.185Z,98687.19
2019-01-28T09:12:47.285Z,98686.57
2019-01-28T09:15:21.928Z,98686.45
2019-01-28T09:18:00.917Z,98691.42
2019-01-28T09:20:35.794Z,98693.73
2019-01-28T09:23:07.942Z,98700.05
2019-01-28T09:25:38.176Z,98699.59
2019-01-28T09:28:08.388Z,98699.05
2019-01-28T09:30:38.918Z,98695.12
2019-01-28T09:33:09.126Z,98698.10
2019-01-28T09:35:39.363Z,98701.62
2019-01-28T09:38:09.580Z,98699.26
2019-01-28T09:40:39.810Z,98701.03
2019-01-28T09:43:11.646Z,98696.89
2019-01-28T09:45:43.455Z,98699.89
2019-01-28T09:48:15.230Z,98705.77
2019-01-28T09:50:45.925Z,98701.67
2019-01-28T09:53:16.134Z,98701.21
2019-01-28T09:55:48.511Z,98700.36
2019-01-28T09:58:18.727Z,98704.58
2019-01-28T10:00:51.515Z,98708.77
2019-01-28T10:03:24.430Z,98715.01
2019-01-28T10:05:54.929Z,98722.81
2019-01-28T10:08:25.140Z,98717.72
2019-01-28T10:10:55.386Z,98719.55
2019-01-28T10:13:25.588Z,98722.64
2019-01-28T10:15:59.590Z,98721.23
2019-01-28T10:18:31.655Z,98725.63
2019-01-28T10:21:03.041Z,98730.66
2019-01-28T10:23:34.794Z,98727.00
2019-01-28T10:26:05.195Z,98722.42
2019-01-28T10:28:35.524Z,98721.95
2019-01-28T10:31:12.380Z,98721.30
2019-01-28T10:33:49.044Z,98729.77
2019-01-28T10:36:23.040Z,98729.66
2019-01-28T10:38:54.236Z,98727.47
2019-01-28T10:41:24.486Z,98734.45
2019-01-28T10:43:54.695Z,98731.47
2019-01-28T10:46:24.942Z,98725.59
2019-01-28T10:48:55.431Z,98734.98
2019-01-28T10:51:25.688Z,98735.31
2019-01-28T10:53:57.117Z,98734.55
2019-01-28T10:56:28.273Z,98737.77
2019-01-28T10:58:59.395Z,98733.14
2019-01-28T11:01:31.812Z,98734.13
2019-01-28T11:04:02.061Z,98734.86
2019-01-28T11:06:32.541Z,98729.43
2019-01-28T11:09:05.300Z,98732.53
2019-01-28T11:11:37.669Z,98728.00
2019-01-28T11:14:09.131Z,98733.16
2019-01-28T11:16:40.622Z,98733.75
2019-01-28T11:19:11.004Z,98732.84
2019-01-28T11:21:43.497Z,98737.84
2019-01-28T11:24:15.798Z,98738.53
2019-01-28T11:26:46.936Z,98747.62
2019-01-28T11:29:20.915Z,98736.45
2019-01-28T11:31:51.442Z,98739.58
2019-01-28T11:34:33.288Z,98738.63
2019-01-28T11:37:05.755Z,98738.91
2019-01-28T11:39:39.156Z,98730.28
2019-01-28T11:42:09.920Z,98731.69
2019-01-28T11:44:41.219Z,98731.86
2019-01-28T11:47:13.720Z,98727.10
2019-01-28T11:49:49.234Z,98731.83
2019-01-28T11:52:19.751Z,98731.41
2019-01-28T11:54:50.089Z,98728.32
2019-01-28T11:57:21.548Z,98730.32
2019-01-28T11:59:53.000Z,98734.88
2019-01-28T12:02:24.956Z,98734.03
2019-01-28T12:04:55.476Z,98742.37
2019-01-28T12:07:25.788Z,98740.33
2019-01-28T12:09:59.164Z,98744.53
2019-01-28T12:12:33.916Z,98750.67
2019-01-28T12:15:15.646Z,98744.53
2019-01-28T12:17:46.966Z,98742.14
2019-01-28T12:20:19.427Z,98748.86
2019-01-28T12:22:49.893Z,98746.96
2019-01-28T12:25:21.307Z,98743.22
2019-01-28T12:27:54.407Z,98745.58
2019-01-28T12:30:28.957Z,98749.41
2019-01-28T12:32:59.467Z,98750.02
2019-01-28T12:35:29.978Z,98742.66
2019-01-28T12:38:00.515Z,98757.56
2019-01-28T12:40:31.740Z,98757.29
2019-01-28T12:43:02.134Z,98755.59
2019-01-28T12:45:33.527Z,98755.81
2019-01-28T12:48:04.706Z,98758.40
2019-01-28T12:50:36.326Z,98756.56
2019-01-28T12:53:09.870Z,98752.69
2019-01-28T12:55:44.268Z,98752.36
2019-01-28T12:58:17.576Z,98747.34
2019-01-28T13:00:50.661Z,98746.27
2019-01-28T13:03:21.088Z,98742.86
2019-01-28T13:05:51.313Z,98743.31
2019-01-28T13:08:21.603Z,98747.62
2019-01-28T13:10:52.640Z,98740.03
2019-01-28T13:13:23.817Z,98740.36
2019-01-28T13:15:55.265Z,98736.19
2019-01-28T13:18:26.739Z,98740.02
2019-01-28T13:20:58.149Z,98737.86
2019-01-28T13:23:29.669Z,98743.53
2019-01-28T13:26:01.369Z,98743.11
2019-01-28T13:28:32.535Z,98742.84
2019-01-28T13:31:03.959Z,98747.13
2019-01-28T13:33:35.123Z,98747.34
2019-01-28T13:36:09.305Z,98744.16
2019-01-28T13:38:38.638Z,98740.66
2019-01-28T13:41:09.759Z,98744.40
2019-01-28T13:43:43.888Z,98744.83
2019-01-28T13:46:15.124Z,98748.77
2019-01-28T13:48:47.823Z,98747.16
2019-01-28T13:51:19.250Z,98748.10
2019-01-28T13:53:50.417Z,98749.41
2019-01-28T13:56:24.694Z,98748.98
2019-01-28T13:58:55.229Z,98745.08
2019-01-28T14:01:25.451Z,98745.58
2019-01-28T14:03:55.693Z,98753.91
2019-01-28T14:06:26.108Z,98750.57
2019-01-28T14:08:57.271Z,98750.41
2019-01-28T14:11:29.625Z,98751.19
2019-01-28T14:13:59.877Z,98761.69
2019-01-28T14:16:30.083Z,98759.81
2019-01-28T14:19:02.286Z,98761.11
2019-01-28T14:21:32.654Z,98763.73
2019-01-28T14:24:03.819Z,98762.67
2019-01-28T14:26:34.950Z,98761.64
2019-01-28T14:29:06.116Z,98758.06
2019-01-28T14:31:37.240Z,98762.85
2019-01-28T14:34:09.663Z,98762.00
2019-01-28T14:36:41.082Z,98765.27
2019-01-28T14:39:13.696Z,98761.29
2019-01-28T14:41:45.835Z,98762.92
2019-01-28T14:44:16.991Z,98768.16
2019-01-28T14:46:49.344Z,98768.59
2019-01-28T14:49:22.816Z,98771.14
2019-01-28T14:51:57.766Z,98771.14
2019-01-28T14:54:28.041Z,98781.53
2019-01-28T14:56:58.261Z,98778.34
2019-01-28T14:59:29.094Z,98779.50
2019-01-28T15:02:03.027Z,98777.19
2019-01-28T15:04:34.447Z,98775.81
2019-01-28T15:07:05.892Z,98781.29
2019-01-28T15:09:37.341Z,98782.23
2019-01-28T15:12:08.869Z,98785.62
2019-01-28T15:14:42.150Z,98789.29
2019-01-28T15:17:14.252Z,98786.13
2019-01-28T15:19:50.642Z,98787.91
2019-01-28T15:22:20.415Z,98787.91
2019-01-28T15:24:51.576Z,98789.75
2019-01-28T15:27:24.855Z,98788.80
2019-01-28T15:29:55.117Z,98788.02
2019-01-28T15:32:26.531Z,98790.64
2019-01-28T15:34:56.803Z,98790.29
2019-01-28T15:37:28.216Z,98786.59
2019-01-28T15:39:59.704Z,98793.99
2019-01-28T15:42:33.672Z,98784.36
2019-01-28T15:45:11.251Z,98793.77
2019-01-28T15:47:36.777Z,98793.45
2019-01-28T15:50:11.128Z,98800.00
2019-01-28T15:52:42.958Z,98789.31
2019-01-28T15:55:21.375Z,98790.55
2019-01-28T15:57:53.670Z,98795.63
2019-01-28T16:00:28.993Z,98804.98
2019-01-28T16:02:59.511Z,98804.58
2019-01-28T16:05:29.859Z,98810.41
2019-01-28T16:08:00.105Z,98818.86
2019-01-28T16:10:30.369Z,98823.85
2019-01-28T16:13:00.610Z,98824.52
2019-01-28T16:15:53.456Z,98826.00
2019-01-28T16:18:34.310Z,98819.13
2019-01-28T16:21:05.199Z,98824.59
2019-01-28T16:23:36.707Z,98834.99
2019-01-28T16:26:06.953Z,98837.83
2019-01-28T16:28:40.414Z,98837.86
2019-01-28T16:31:14.153Z,98842.57
2019-01-28T16:33:47.889Z,98842.88
2019-01-28T16:36:19.220Z,98841.42
2019-01-28T16:38:50.729Z,98840.59
2019-01-28T16:41:22.121Z,98844.15
2019-01-28T16:43:52.479Z,98841.97
2019-01-28T16:46:24.350Z,98844.44
2019-01-28T16:48:54.610Z,98842.44
2019-01-28T16:51:25.809Z,98842.20
2019-01-28T16:53:57.541Z,98841.50
2019-01-28T16:56:27.756Z,98845.75
2019-01-28T16:58:58.173Z,98845.70
2019-01-28T17:01:28.478Z,98844.80
2019-01-28T17:03:58.724Z,98847.50
2019-01-28T17:06:31.400Z,98849.91
2019-01-28T17:09:03.644Z,98847.90
2019-01-28T17:11:35.924Z,98841.44
2019-01-28T17:14:07.647Z,98849.08
2019-01-28T17:16:38.802Z,98850.56
2019-01-28T17:19:10.969Z,98858.52
2019-01-28T17:21:43.645Z,98848.28
2019-01-28T17:24:13.897Z,98852.77
2019-01-28T17:26:44.139Z,98854.12
2019-01-28T17:29:15.396Z,98865.55
2019-01-28T17:31:48.348Z,98862.53
2019-01-28T17:34:18.602Z,98860.59
2019-01-28T17:36:50.056Z,98863.73
2019-01-28T17:39:21.535Z,98862.38
2019-01-28T17:41:52.925Z,98857.27
2019-01-28T17:44:23.193Z,98844.53
2019-01-28T17:46:54.918Z,98858.36
2019-01-28T17:49:26.679Z,98863.45
2019-01-28T17:51:56.921Z,98864.36
2019-01-28T17:54:27.167Z,98852.86
2019-01-28T17:56:57.764Z,98870.66
2019-01-28T17:59:31.123Z,98866.52
2019-01-28T18:02:02.697Z,98872.05
2019-01-28T18:04:34.706Z,98877.20
2019-01-28T18:07:10.535Z,98872.98
2019-01-28T18:09:42.830Z,98871.67
2019-01-28T18:12:18.727Z,98868.59
2019-01-28T18:14:51.382Z,98869.89
2019-01-28T18:17:25.634Z,98846.47
2019-01-28T18:19:58.608Z,98866.30
2019-01-28T18:22:31.834Z,98869.73
2019-01-28T18:25:07.126Z,98862.00
2019-01-28T18:27:39.960Z,98852.28
2019-01-28T18:30:28.201Z,98878.31
2019-01-28T18:32:58.563Z,98878.31
2019-01-28T18:35:29.051Z,98868.31
2019-01-28T18:38:00.842Z,98868.31
2019-01-28T18:40:33.182Z,98878.57
2019-01-28T18:43:05.678Z,98878.66
2019-01-28T18:45:37.007Z,98878.11
2019-01-28T18:48:08.586Z,98878.73
2019-01-28T18:50:40.283Z,98884.60
2019-01-28T18:53:11.416Z,98884.03
2019-01-28T18:55:44.345Z,98884.03
2019-01-28T18:58:14.606Z,98893.84
2019-01-28T19:00:46.030Z,98893.84
2019-01-28T19:03:16.316Z,98896.63
2019-01-28T19:05:49.029Z,98890.45
2019-01-28T19:08:39.368Z,98894.50
2019-01-28T19:11:12.225Z,98895.90
2019-01-28T19:13:50.333Z,98896.31
2019-01-28T19:16:33.629Z,98890.59
2019-01-28T19:19:07.570Z,98895.80
2019-01-28T19:21:41.546Z,98896.14
2019-01-28T19:24:12.728Z,98893.61
2019-01-28T19:26:43.020Z,98894.84
2019-01-28T19:29:13.503Z,98897.68
2019-01-28T19:31:45.847Z,98895.31
2019-01-28T19:34:17.036Z,98902.64
2019-01-28T19:36:51.132Z,98900.34
2019-01-28T19:39:22.526Z,98903.58
2019-01-28T19:41:54.793Z,98906.33
2019-01-28T19:44:25.280Z,98897.56
2019-01-28T19:46:55.519Z,98904.23
2019-01-28T19:49:26.754Z,98901.94
2019-01-28T19:51:57.155Z,98907.86
2019-01-28T19:54:29.977Z,98909.58
2019-01-28T19:57:00.351Z,98909.58
2019-01-28T19:59:34.410Z,98907.86
2019-01-28T20:02:05.576Z,98904.20
2019-01-28T20:04:37.445Z,98904.30
2019-01-28T20:07:08.600Z,98905.84
2019-01-28T20:09:41.410Z,98908.09
2019-01-28T20:12:11.830Z,98903.23
2019-01-28T20:14:42.455Z,98900.22
2019-01-28T20:17:14.431Z,98902.41
2019-01-28T20:19:45.668Z,98908.44
2019-01-28T20:22:16.091Z,98908.09
2019-01-28T20:24:47.591Z,98904.77
2019-01-28T20:27:17.822Z,98913.05
2019-01-28T20:29:50.489Z,98911.16
2019-01-28T20:32:22.996Z,98913.46
2019-01-28T20:34:53.373Z,98910.61
2019-01-28T20:37:24.796Z,98914.52
2019-01-28T20:39:55.789Z,98919.13
2019-01-28T20:42:41.922Z,98917.34
2019-01-28T20:45:24.604Z,98926.11
2019-01-28T20:47:56.732Z,98919.95
2019-01-28T20:50:29.648Z,98919.13
2019-01-28T20:52:59.926Z,98921.16
2019-01-28T20:55:31.425Z,98919.14
2019-01-28T20:58:03.644Z,98916.90
2019-01-28T21:00:34.023Z,98918.95
2019-01-28T21:03:05.357Z,98904.35
2019-01-28T21:05:36.167Z,98902.06
2019-01-28T21:08:07.958Z,98912.34
2019-01-28T21:10:41.589Z,98908.06
2019-01-28T21:13:15.320Z,98909.59
2019-01-28T21:15:47.657Z,98898.73
2019-01-28T21:18:19.054Z,98898.73
2019-01-28T21:20:50.511Z,98916.61
2019-01-28T21:23:22.490Z,98914.48
2019-01-28T21:25:53.287Z,98915.05
2019-01-28T21:28:25.353Z,98911.46
2019-01-28T21:30:56.799Z,98916.25
2019-01-28T21:33:29.537Z,98910.87
2019-01-28T21:36:19.065Z,98911.11
2019-01-28T21:38:49.608Z,98919.55
2019-01-28T21:41:22.419Z,98916.12
2019-01-28T21:43:54.130Z,98918.47
2019-01-28T21:46:26.291Z,98917.95
2019-01-28T21:48:56.842Z,98915.58
2019-01-28T21:51:28.236Z,98917.30
2019-01-28T21:53:59.862Z,98912.38
2019-01-28T21:56:31.762Z,98916.53
2019-01-28T21:59:02.426Z,98915.48
2019-01-28T22:01:33.246Z,98908.16
2019-01-28T22:04:05.036Z,98916.13
2019-01-28T22:06:36.820Z,98907.97
2019-01-28T22:09:07.647Z,98914.96
2019-01-28T22:11:43.683Z,98915.48
2019-01-28T22:14:19.254Z,98920.52
2019-01-28T22:16:53.187Z,98915.83
2019-01-28T22:19:25.312Z,98918.44
2019-01-28T22:21:59.247Z,98918.09
2019-01-28T22:24:27.824Z,98915.66
2019-01-28T22:26:59.298Z,98920.32
2019-01-28T22:29:30.701Z,98919.19
2019-01-28T22:32:02.231Z,98918.71
2019-01-28T22:34:32.699Z,98920.42
2019-01-28T22:37:02.976Z,98920.42
2019-01-28T22:39:33.463Z,98914.98
2019-01-28T22:42:04.946Z,98925.48
2019-01-28T22:44:37.284Z,98925.48
2019-01-28T22:47:09.475Z,98904.21
2019-01-28T22:49:39.867Z,98921.40
2019-01-28T22:52:10.128Z,98928.56
2019-01-28T22:54:41.529Z,98920.91
2019-01-28T22:57:12.699Z,98929.20
2019-01-28T22:59:44.115Z,98920.84
2019-01-28T23:02:14.358Z,98920.43
2019-01-28T23:04:44.567Z,98920.43
2019-01-28T23:07:14.807Z,98907.41
2019-01-28T23:09:45.024Z,98907.41
2019-01-28T23:12:17.077Z,98923.35
2019-01-28T23:14:47.300Z,98909.83
2019-01-28T23:17:17.530Z,98925.13
2019-01-28T23:19:47.752Z,98930.03
2019-01-28T23:22:19.215Z,98933.94
2019-01-28T23:24:50.638Z,98933.12
2019-01-28T23:27:22.104Z,98926.92
2019-01-28T23:29:53.845Z,98928.89
2019-01-28T23:32:24.100Z,98935.23
2019-01-28T23:34:55.530Z,98932.14
2019-01-28T23:37:26.681Z,98932.14
2019-01-28T23:39:56.911Z,98937.11
2019-01-28T23:42:27.140Z,98926.75
2019-01-28T23:44:57.339Z,98915.29
2019-01-28T23:47:28.495Z,98926.59
2019-01-28T23:49:59.930Z,98930.17
2019-01-28T23:52:30.168Z,98915.44
2019-01-28T23:55:00.377Z,98935.23
2019-01-28T23:57:30.917Z,98935.23
